createdAt,value
2019-01-19T00:02:55.328Z,88.29
2019-01-19T00:08:23.557Z,87.65
2019-01-19T00:14:05.982Z,88.10
2019-01-19T00:19:48.340Z,87.74
2019-01-19T00:25:17.650Z,87.90
2019-01-19T00:30:59.935Z,88.20
2019-01-19T00:36:42.224Z,88.55
2019-01-19T00:42:24.510Z,88.58
2019-01-19T00:48:06.870Z,88.58
2019-01-19T00:53:23.080Z,88.38
2019-01-19T01:05:15.653Z,88.14
2019-01-19T01:10:57.970Z,88.62
2019-01-19T01:16:35.709Z,88.21
2019-01-19T01:22:18.248Z,88.44
2019-01-19T01:33:38.686Z,88.51
2019-01-19T01:39:20.970Z,88.46
2019-01-19T01:45:03.248Z,88.51
2019-01-19T01:56:42.786Z,87.11
2019-01-19T02:02:25.070Z,87.30
2019-01-19T02:13:59.991Z,87.56
2019-01-19T02:19:42.271Z,88.25
2019-01-19T02:25:24.552Z,88.75
2019-01-19T02:31:06.844Z,88.66
2019-01-19T02:36:49.167Z,89.04
2019-01-19T02:48:19.407Z,87.79
2019-01-19T02:54:01.743Z,87.53
2019-01-19T02:59:18.334Z,88.48
2019-01-19T03:04:44.557Z,88.10
2019-01-19T03:10:26.847Z,88.17
2019-01-19T03:16:09.133Z,88.34
2019-01-19T03:21:51.425Z,88.53
2019-01-19T03:27:19.263Z,87.78
2019-01-19T03:38:59.386Z,87.99
2019-01-19T03:44:41.670Z,87.92
2019-01-19T03:50:23.964Z,87.73
2019-01-19T03:56:06.496Z,87.68
2019-01-19T04:01:22.946Z,87.85
2019-01-19T04:07:05.631Z,88.09
2019-01-19T04:12:59.824Z,87.98
2019-01-19T04:24:37.829Z,87.50
2019-01-19T04:35:10.746Z,87.54
2019-01-19T04:40:15.036Z,87.77
2019-01-19T04:50:28.869Z,87.77
2019-01-19T05:06:13.173Z,87.64
2019-01-19T05:16:46.178Z,87.42
2019-01-19T05:21:50.390Z,87.29
2019-01-19T05:26:54.780Z,87.37
2019-01-19T05:31:59.009Z,86.76
2019-01-19T05:37:03.241Z,86.60
2019-01-19T05:42:07.936Z,87.41
2019-01-19T05:47:12.194Z,87.49
2019-01-19T05:57:45.741Z,86.78
2019-01-19T06:02:49.987Z,87.65
2019-01-19T06:07:54.252Z,87.25
2019-01-19T06:13:17.634Z,87.72
2019-01-19T06:18:21.873Z,88.01
2019-01-19T06:28:36.009Z,86.99
2019-01-19T06:33:59.321Z,87.06
2019-01-19T06:49:48.726Z,87.08
2019-01-19T06:54:52.966Z,86.83
2019-01-19T07:05:46.971Z,87.28
2019-01-19T07:16:02.803Z,87.07
2019-01-19T07:21:07.093Z,87.10
2019-01-19T07:26:11.529Z,87.21
2019-01-19T07:31:15.830Z,86.85
2019-01-19T07:36:20.343Z,86.74
2019-01-19T07:41:24.650Z,86.75
2019-01-19T07:57:09.025Z,86.86
2019-01-19T08:12:45.211Z,86.26
2019-01-19T08:22:59.515Z,85.90
2019-01-19T08:28:23.127Z,85.34
2019-01-19T08:33:46.420Z,84.61
2019-01-19T08:38:50.737Z,84.60
2019-01-19T08:44:14.034Z,84.17
2019-01-19T08:49:18.284Z,83.71
2019-01-19T08:59:32.919Z,83.10
2019-01-19T09:04:37.208Z,82.31
2019-01-19T09:09:41.546Z,81.73
2019-01-19T09:14:45.997Z,81.11
2019-01-19T09:19:50.392Z,80.53
2019-01-19T09:24:54.787Z,79.32
2019-01-19T09:29:59.175Z,78.39
2019-01-19T09:35:03.531Z,77.59
2019-01-19T09:40:08.270Z,77.42
2019-01-19T09:45:52.527Z,75.62
2019-01-19T09:51:15.791Z,76.06
2019-01-19T10:06:58.985Z,75.15
2019-01-19T10:17:43.916Z,73.41
2019-01-19T10:22:48.190Z,73.39
2019-01-19T10:27:52.784Z,72.25
2019-01-19T10:32:57.030Z,71.62
2019-01-19T10:38:01.327Z,71.42
2019-01-19T10:48:34.965Z,70.38
2019-01-19T10:58:48.856Z,68.88
2019-01-19T11:04:12.163Z,67.74
2019-01-19T11:09:16.427Z,68.41
2019-01-19T11:14:20.653Z,67.02
2019-01-19T11:19:44.018Z,66.00
2019-01-19T11:24:48.252Z,66.56
2019-01-19T11:29:52.478Z,65.37
2019-01-19T11:35:15.861Z,64.43
2019-01-19T11:41:00.650Z,66.00
2019-01-19T11:46:04.867Z,63.93
2019-01-19T11:51:28.160Z,62.60
2019-01-19T11:56:51.398Z,63.03
2019-01-19T12:01:55.912Z,62.49
2019-01-19T12:07:00.354Z,61.61
2019-01-19T12:12:04.715Z,60.69
2019-01-19T12:17:09.130Z,60.41
2019-01-19T12:22:15.257Z,59.25
2019-01-19T12:27:19.543Z,59.07
2019-01-19T12:32:23.921Z,58.71
2019-01-19T12:37:28.203Z,58.26
2019-01-19T12:42:34.404Z,58.27
2019-01-19T12:47:38.732Z,59.99
2019-01-19T12:52:43.544Z,60.65
2019-01-19T12:57:49.354Z,60.26
2019-01-19T13:02:53.894Z,60.83
2019-01-19T13:08:02.243Z,62.22
2019-01-19T13:13:27.784Z,63.19
2019-01-19T13:19:14.076Z,63.56
2019-01-19T13:24:29.512Z,62.90
2019-01-19T13:30:12.131Z,63.65
2019-01-19T13:35:54.790Z,64.45
2019-01-19T13:41:37.109Z,64.80
2019-01-19T13:47:19.441Z,64.57
2019-01-19T13:58:40.010Z,66.21
2019-01-19T14:04:26.283Z,66.01
2019-01-19T14:10:08.558Z,65.62
2019-01-19T14:15:50.841Z,66.19
2019-01-19T14:21:33.269Z,65.75
2019-01-19T14:33:21.056Z,65.96
2019-01-19T14:39:03.486Z,66.10
2019-01-19T14:44:45.828Z,66.20
2019-01-19T14:50:28.111Z,66.91
2019-01-19T14:56:22.614Z,67.32
2019-01-19T15:02:04.931Z,67.61
2019-01-19T15:07:47.204Z,67.98
2019-01-19T15:19:23.401Z,69.67
2019-01-19T15:25:05.694Z,69.88
2019-01-19T15:30:21.267Z,70.34
2019-01-19T15:36:03.734Z,70.19
2019-01-19T15:41:46.168Z,70.78
2019-01-19T15:47:28.443Z,71.06
2019-01-19T15:53:10.724Z,70.73
2019-01-19T15:59:07.414Z,72.17
2019-01-19T16:04:49.962Z,72.44
2019-01-19T16:10:32.364Z,72.66
2019-01-19T16:22:11.325Z,73.20
2019-01-19T16:27:53.612Z,73.45
2019-01-19T16:33:36.293Z,73.85
2019-01-19T16:39:25.402Z,73.91
2019-01-19T16:44:50.896Z,74.46
2019-01-19T16:50:33.798Z,75.11
2019-01-19T17:02:15.744Z,75.92
2019-01-19T17:07:58.046Z,76.50
2019-01-19T17:19:12.999Z,76.97
2019-01-19T17:24:55.566Z,77.22
2019-01-19T17:30:37.844Z,77.43
2019-01-19T17:35:53.517Z,77.50
2019-01-19T17:41:35.839Z,77.82
2019-01-19T17:47:18.120Z,78.01
2019-01-19T17:53:00.691Z,78.29
2019-01-19T17:58:43.066Z,78.38
2019-01-19T18:04:26.450Z,78.48
2019-01-19T18:10:08.731Z,79.02
2019-01-19T18:15:51.120Z,78.78
2019-01-19T18:33:29.767Z,79.46
2019-01-19T18:39:12.832Z,79.38
2019-01-19T18:44:55.210Z,79.23
2019-01-19T18:50:37.487Z,79.44
2019-01-19T18:56:19.764Z,79.49
2019-01-19T19:02:02.135Z,79.17
2019-01-19T19:07:49.462Z,79.13
2019-01-19T19:13:15.930Z,78.99
2019-01-19T19:18:58.262Z,79.03
2019-01-19T19:24:56.083Z,78.87
2019-01-19T19:36:43.095Z,79.04
2019-01-19T19:42:25.414Z,79.24
2019-01-19T19:48:07.729Z,79.13
2019-01-19T19:53:30.884Z,78.91
2019-01-19T19:58:35.122Z,78.91
2019-01-19T20:03:58.424Z,78.46
2019-01-19T20:14:14.513Z,79.14
2019-01-19T20:19:19.119Z,78.61
2019-01-19T20:24:23.737Z,78.84
2019-01-19T20:29:28.042Z,79.11
2019-01-19T20:34:51.347Z,79.38
2019-01-19T20:39:55.582Z,79.61
2019-01-19T20:44:59.959Z,79.90
2019-01-19T20:55:33.866Z,79.37
2019-01-19T21:00:38.092Z,79.87
2019-01-19T21:06:01.499Z,79.93
2019-01-19T21:11:45.181Z,80.00
2019-01-19T21:22:05.443Z,81.28
2019-01-19T21:27:10.082Z,80.31
2019-01-19T21:32:14.364Z,80.74
2019-01-19T21:37:19.119Z,80.85
2019-01-19T21:42:23.474Z,80.74
2019-01-19T21:47:46.783Z,80.93
2019-01-19T21:52:51.656Z,80.94
2019-01-19T21:58:15.655Z,81.14
2019-01-19T22:03:19.885Z,81.15
2019-01-19T22:08:43.188Z,81.09
2019-01-19T22:13:47.454Z,80.84
2019-01-19T22:19:10.755Z,81.74
2019-01-19T22:34:55.729Z,81.78
2019-01-19T22:39:59.972Z,82.23
2019-01-19T22:50:46.958Z,82.07
2019-01-19T22:55:51.552Z,82.11
2019-01-19T23:01:34.109Z,82.20
2019-01-19T23:06:38.349Z,82.35
2019-01-19T23:27:32.025Z,81.80
2019-01-19T23:37:47.153Z,82.46
2019-01-19T23:42:51.397Z,82.18
2019-01-19T23:53:05.263Z,81.29
2019-01-19T23:58:09.586Z,80.79
